Aviation Digital Data Service (ADDS)

Output produced by METARs form (1358 UTC 22 April 2019)
found at http://www.aviationweather.gov/metar/data/
 
METAR text: OINR 221300Z 30004KT 7000 -RA FEW020CB BKN025 OVC080 10/09 Q1015
Conditions at: OINR (RAMSAR , IR) observed 1300 UTC 22 April 2019
Temperature: 10.0°C (50°F)
Dewpoint: 9.0°C (48°F) [RH = 93%]
Pressure (altimeter): 29.97 inches Hg (1015.0 mb)
Winds: from the WNW (300 degrees) at 5 MPH (4 knots; 2.1 m/s)
Visibility: 4 miles ( 7 km)
Ceiling: 2500 feet AGL
Clouds: few clouds at 2000 feet AGL
broken clouds at 2500 feet AGL
overcast cloud deck at 8000 feet AGL
Weather: -RA  (light rain)

METAR text: OINR 221200Z 31010KT 3000 SHRA SCT009 SCT019CB OVC070 10/10 Q1015
Conditions at: OINR (RAMSAR , IR) observed 1200 UTC 22 April 2019
Temperature: 10.0°C (50°F)
Dewpoint: 10.0°C (50°F) [RH = 100%]
Pressure (altimeter): 29.97 inches Hg (1015.0 mb)
Winds: from the NW (310 degrees) at 12 MPH (10 knots; 5.1 m/s)
Visibility: 1.86 miles (2.99 km)
Ceiling: 7000 feet AGL
Clouds: scattered clouds at 900 feet AGL
scattered clouds at 1900 feet AGL
overcast cloud deck at 7000 feet AGL
Weather: SHRA  (rain showers)

METAR text: OINR 221100Z 25002KT 3000 SHRA SCT006 SCT020CB OVC080 10/09 Q1014
Conditions at: OINR (RAMSAR , IR) observed 1100 UTC 22 April 2019
Temperature: 10.0°C (50°F)
Dewpoint: 9.0°C (48°F) [RH = 93%]
Pressure (altimeter): 29.94 inches Hg (1014.0 mb)
Winds: from the WSW (250 degrees) at 2 MPH (2 knots; 1.0 m/s)
Visibility: 1.86 miles (2.99 km)
Ceiling: 8000 feet AGL
Clouds: scattered clouds at 600 feet AGL
scattered clouds at 2000 feet AGL
overcast cloud deck at 8000 feet AGL
Weather: SHRA  (rain showers)

METAR text: OINR 221000Z 09006KT 3000 SHRA SCT006 SCT020CB OVC080 10/10 Q1014
Conditions at: OINR (RAMSAR , IR) observed 1000 UTC 22 April 2019
Temperature: 10.0°C (50°F)
Dewpoint: 10.0°C (50°F) [RH = 100%]
Pressure (altimeter): 29.94 inches Hg (1014.0 mb)
Winds: from the E (90 degrees) at 7 MPH (6 knots; 3.1 m/s)
Visibility: 1.86 miles (2.99 km)
Ceiling: 8000 feet AGL
Clouds: scattered clouds at 600 feet AGL
scattered clouds at 2000 feet AGL
overcast cloud deck at 8000 feet AGL
Weather: SHRA  (rain showers)

METAR text: OINR 220900Z 09004KT 5000 -SHRA BKN007 FEW020CB OVC080 10/10 Q1015
Conditions at: OINR (RAMSAR , IR) observed 0900 UTC 22 April 2019
Temperature: 10.0°C (50°F)
Dewpoint: 10.0°C (50°F) [RH = 100%]
Pressure (altimeter): 29.97 inches Hg (1015.0 mb)
Winds: from the E (90 degrees) at 5 MPH (4 knots; 2.1 m/s)
Visibility: 3 miles ( 5 km)
Ceiling: 700 feet AGL
Clouds: broken clouds at 700 feet AGL
few clouds at 2000 feet AGL
overcast cloud deck at 8000 feet AGL
Weather: -SHRA  (light rain showers)

METAR text: OINR 220800Z 10006KT 6000 -RA BKN008 FEW020CB OVC080 10/09 Q1015
Conditions at: OINR (RAMSAR , IR) observed 0800 UTC 22 April 2019
Temperature: 10.0°C (50°F)
Dewpoint: 9.0°C (48°F) [RH = 93%]
Pressure (altimeter): 29.97 inches Hg (1015.0 mb)
Winds: from the E (100 degrees) at 7 MPH (6 knots; 3.1 m/s)
Visibility: 4 miles ( 6 km)
Ceiling: 800 feet AGL
Clouds: broken clouds at 800 feet AGL
few clouds at 2000 feet AGL
overcast cloud deck at 8000 feet AGL
Weather: -RA  (light rain)

METAR text: OINR 220700Z 15002KT 7000 BKN009 FEW020CB OVC080 11/09 Q1016
Conditions at: OINR (RAMSAR , IR) observed 0700 UTC 22 April 2019
Temperature: 11.0°C (52°F)
Dewpoint: 9.0°C (48°F) [RH = 87%]
Pressure (altimeter): 30.00 inches Hg (1016.0 mb)
Winds: from the SSE (150 degrees) at 2 MPH (2 knots; 1.0 m/s)
Visibility: 4 miles ( 7 km)
Ceiling: 900 feet AGL
Clouds: broken clouds at 900 feet AGL
few clouds at 2000 feet AGL
overcast cloud deck at 8000 feet AGL
Weather: no significant weather observed at this time

METAR text: OINR 220600Z 14002KT 6000 BKN007 FEW020CB OVC080 10/09 Q1016
Conditions at: OINR (RAMSAR , IR) observed 0600 UTC 22 April 2019
Temperature: 10.0°C (50°F)
Dewpoint: 9.0°C (48°F) [RH = 93%]
Pressure (altimeter): 30.00 inches Hg (1016.0 mb)
Winds: from the SE (140 degrees) at 2 MPH (2 knots; 1.0 m/s)
Visibility: 4 miles ( 6 km)
Ceiling: 700 feet AGL
Clouds: broken clouds at 700 feet AGL
few clouds at 2000 feet AGL
overcast cloud deck at 8000 feet AGL
Weather: no significant weather observed at this time

METAR text: OINR 220500Z 12002KT 6000 BKN007 FEW020CB OVC080 10/08 Q1017 REDZ
Conditions at: OINR (RAMSAR , IR) observed 0500 UTC 22 April 2019
Temperature: 10.0°C (50°F)
Dewpoint: 8.0°C (46°F) [RH = 87%]
Pressure (altimeter): 30.03 inches Hg (1017.0 mb)
Winds: from the ESE (120 degrees) at 2 MPH (2 knots; 1.0 m/s)
Visibility: 4 miles ( 6 km)
Ceiling: 700 feet AGL
Clouds: broken clouds at 700 feet AGL
few clouds at 2000 feet AGL
overcast cloud deck at 8000 feet AGL
Weather: no significant weather observed at this time

METAR text: OINR 220400Z 00000KT 9999 DZ BKN010 FEW020CB OVC070 09/09 Q1017
Conditions at: OINR (RAMSAR , IR) observed 0400 UTC 22 April 2019
Temperature: 9.0°C (48°F)
Dewpoint: 9.0°C (48°F) [RH = 100%]
Pressure (altimeter): 30.03 inches Hg (1017.0 mb)
Winds: calm
Visibility: 6 or more miles (10+ km)
Ceiling: 1000 feet AGL
Clouds: broken clouds at 1000 feet AGL
few clouds at 2000 feet AGL
overcast cloud deck at 7000 feet AGL
Weather: DZ  (moderate drizzle)

METAR text: OINR 220300Z 00000KT 9999 BKN015 FEW023CB OVC080 09/09 Q1017
Conditions at: OINR (RAMSAR , IR) observed 0300 UTC 22 April 2019
Temperature: 9.0°C (48°F)
Dewpoint: 9.0°C (48°F) [RH = 100%]
Pressure (altimeter): 30.03 inches Hg (1017.0 mb)
Winds: calm
Visibility: 6 or more miles (10+ km)
Ceiling: 1500 feet AGL
Clouds: broken clouds at 1500 feet AGL
few clouds at 2300 feet AGL
overcast cloud deck at 8000 feet AGL
Weather: no significant weather observed at this time

METAR text: OINR 220200Z 00000KT 9999 BKN015 FEW023CB OVC080 09/09 Q1017
Conditions at: OINR (RAMSAR , IR) observed 0200 UTC 22 April 2019
Temperature: 9.0°C (48°F)
Dewpoint: 9.0°C (48°F) [RH = 100%]
Pressure (altimeter): 30.03 inches Hg (1017.0 mb)
Winds: calm
Visibility: 6 or more miles (10+ km)
Ceiling: 1500 feet AGL
Clouds: broken clouds at 1500 feet AGL
few clouds at 2300 feet AGL
overcast cloud deck at 8000 feet AGL
Weather: no significant weather observed at this time

METAR text: OINR 220100Z 00000KT 4000 -DZ BKN015 FEW023CB OVC080 09/09 Q1017
Conditions at: OINR (RAMSAR , IR) observed 0100 UTC 22 April 2019
Temperature: 9.0°C (48°F)
Dewpoint: 9.0°C (48°F) [RH = 100%]
Pressure (altimeter): 30.03 inches Hg (1017.0 mb)
Winds: calm
Visibility: 2.49 miles (4.01 km)
Ceiling: 1500 feet AGL
Clouds: broken clouds at 1500 feet AGL
few clouds at 2300 feet AGL
overcast cloud deck at 8000 feet AGL
Weather: -DZ  (light drizzle)

METAR text: OINR 220000Z 31002KT 9999 BKN017 FEW023CB OVC080 09/09 Q1017
Conditions at: OINR (RAMSAR , IR) observed 0000 UTC 22 April 2019
Temperature: 9.0°C (48°F)
Dewpoint: 9.0°C (48°F) [RH = 100%]
Pressure (altimeter): 30.03 inches Hg (1017.0 mb)
Winds: from the NW (310 degrees) at 2 MPH (2 knots; 1.0 m/s)
Visibility: 6 or more miles (10+ km)
Ceiling: 1700 feet AGL
Clouds: broken clouds at 1700 feet AGL
few clouds at 2300 feet AGL
overcast cloud deck at 8000 feet AGL
Weather: no significant weather observed at this time

METAR text: OINR 212100Z 00000KT 3000 DZ OVC013 09/09 Q1019
Conditions at: OINR (RAMSAR , IR) observed 2100 UTC 21 April 2019
Temperature: 9.0°C (48°F)
Dewpoint: 9.0°C (48°F) [RH = 100%]
Pressure (altimeter): 30.09 inches Hg (1019.0 mb)
Winds: calm
Visibility: 1.86 miles (2.99 km)
Ceiling: 1300 feet AGL
Clouds: overcast cloud deck at 1300 feet AGL
Weather: DZ  (moderate drizzle)

METAR text: OINR 212000Z 16004KT 4000 -RA BKN013 FEW022CB OVC070 09/09 Q1019
Conditions at: OINR (RAMSAR , IR) observed 2000 UTC 21 April 2019
Temperature: 9.0°C (48°F)
Dewpoint: 9.0°C (48°F) [RH = 100%]
Pressure (altimeter): 30.09 inches Hg (1019.0 mb)
Winds: from the SSE (160 degrees) at 5 MPH (4 knots; 2.1 m/s)
Visibility: 2.49 miles (4.01 km)
Ceiling: 1300 feet AGL
Clouds: broken clouds at 1300 feet AGL
few clouds at 2200 feet AGL
overcast cloud deck at 7000 feet AGL
Weather: -RA  (light rain)

METAR text: OINR 211900Z 00000KT 4000 -RA BKN012 FEW020CB OVC070 09/09 Q1020
Conditions at: OINR (RAMSAR , IR) observed 1900 UTC 21 April 2019
Temperature: 9.0°C (48°F)
Dewpoint: 9.0°C (48°F) [RH = 100%]
Pressure (altimeter): 30.12 inches Hg (1020.0 mb)
Winds: calm
Visibility: 2.49 miles (4.01 km)
Ceiling: 1200 feet AGL
Clouds: broken clouds at 1200 feet AGL
few clouds at 2000 feet AGL
overcast cloud deck at 7000 feet AGL
Weather: -RA  (light rain)

METAR text: OINR 211800Z 15004KT 4000 -RA BKN012 FEW020CB OVC070 09/09 Q1020
Conditions at: OINR (RAMSAR , IR) observed 1800 UTC 21 April 2019
Temperature: 9.0°C (48°F)
Dewpoint: 9.0°C (48°F) [RH = 100%]
Pressure (altimeter): 30.12 inches Hg (1020.0 mb)
Winds: from the SSE (150 degrees) at 5 MPH (4 knots; 2.1 m/s)
Visibility: 2.49 miles (4.01 km)
Ceiling: 1200 feet AGL
Clouds: broken clouds at 1200 feet AGL
few clouds at 2000 feet AGL
overcast cloud deck at 7000 feet AGL
Weather: -RA  (light rain)

METAR text: OINR 211700Z 16002KT 3000 DZ OVC010 09/09 Q1020
Conditions at: OINR (RAMSAR , IR) observed 1700 UTC 21 April 2019
Temperature: 9.0°C (48°F)
Dewpoint: 9.0°C (48°F) [RH = 100%]
Pressure (altimeter): 30.12 inches Hg (1020.0 mb)
Winds: from the SSE (160 degrees) at 2 MPH (2 knots; 1.0 m/s)
Visibility: 1.86 miles (2.99 km)
Ceiling: 1000 feet AGL
Clouds: overcast cloud deck at 1000 feet AGL
Weather: DZ  (moderate drizzle)

METAR text: OINR 211600Z 00000KT 3000 DZ BKN011 FEW020CB OVC080 09/09 Q1019
Conditions at: OINR (RAMSAR , IR) observed 1600 UTC 21 April 2019
Temperature: 9.0°C (48°F)
Dewpoint: 9.0°C (48°F) [RH = 100%]
Pressure (altimeter): 30.09 inches Hg (1019.0 mb)
Winds: calm
Visibility: 1.86 miles (2.99 km)
Ceiling: 1100 feet AGL
Clouds: broken clouds at 1100 feet AGL
few clouds at 2000 feet AGL
overcast cloud deck at 8000 feet AGL
Weather: DZ  (moderate drizzle)

METAR text: OINR 211500Z 19002KT 4000 -DZ BKN013 FEW020CB OVC080 09/09 Q1019
Conditions at: OINR (RAMSAR , IR) observed 1500 UTC 21 April 2019
Temperature: 9.0°C (48°F)
Dewpoint: 9.0°C (48°F) [RH = 100%]
Pressure (altimeter): 30.09 inches Hg (1019.0 mb)
Winds: from the S (190 degrees) at 2 MPH (2 knots; 1.0 m/s)
Visibility: 2.49 miles (4.01 km)
Ceiling: 1300 feet AGL
Clouds: broken clouds at 1300 feet AGL
few clouds at 2000 feet AGL
overcast cloud deck at 8000 feet AGL
Weather: -DZ  (light drizzle)

METAR text: OINR 211400Z 15004KT 2000 +DZ OVC013 10/09 Q1019
Conditions at: OINR (RAMSAR , IR) observed 1400 UTC 21 April 2019
Temperature: 10.0°C (50°F)
Dewpoint: 9.0°C (48°F) [RH = 93%]
Pressure (altimeter): 30.09 inches Hg (1019.0 mb)
Winds: from the SSE (150 degrees) at 5 MPH (4 knots; 2.1 m/s)
Visibility: 1.24 miles (2.00 km)
Ceiling: 1300 feet AGL
Clouds: overcast cloud deck at 1300 feet AGL
Weather: +DZ  (heavy drizzle)

METAR text: OINR 211300Z 12002KT 3000 -DZ OVC013 10/09 Q1019
Conditions at: OINR (RAMSAR , IR) observed 1300 UTC 21 April 2019
Temperature: 10.0°C (50°F)
Dewpoint: 9.0°C (48°F) [RH = 93%]
Pressure (altimeter): 30.09 inches Hg (1019.0 mb)
Winds: from the ESE (120 degrees) at 2 MPH (2 knots; 1.0 m/s)
Visibility: 1.86 miles (2.99 km)
Ceiling: 1300 feet AGL
Clouds: overcast cloud deck at 1300 feet AGL
Weather: -DZ  (light drizzle)

METAR text: OINR 211200Z 11004KT 2500 -DZ OVC010 10/09 Q1019
Conditions at: OINR (RAMSAR , IR) observed 1200 UTC 21 April 2019
Temperature: 10.0°C (50°F)
Dewpoint: 9.0°C (48°F) [RH = 93%]
Pressure (altimeter): 30.09 inches Hg (1019.0 mb)
Winds: from the ESE (110 degrees) at 5 MPH (4 knots; 2.1 m/s)
Visibility: 1.55 miles (2.49 km)
Ceiling: 1000 feet AGL
Clouds: overcast cloud deck at 1000 feet AGL
Weather: -DZ  (light drizzle)

METAR text: OINR 211100Z 03002KT 3000 -DZ BKN012 FEW020CB OVC070 10/10 Q1019
Conditions at: OINR (RAMSAR , IR) observed 1100 UTC 21 April 2019
Temperature: 10.0°C (50°F)
Dewpoint: 10.0°C (50°F) [RH = 100%]
Pressure (altimeter): 30.09 inches Hg (1019.0 mb)
Winds: from the NNE (30 degrees) at 2 MPH (2 knots; 1.0 m/s)
Visibility: 1.86 miles (2.99 km)
Ceiling: 1200 feet AGL
Clouds: broken clouds at 1200 feet AGL
few clouds at 2000 feet AGL
overcast cloud deck at 7000 feet AGL
Weather: -DZ  (light drizzle)

METAR text: OINR 211000Z 06006KT 4000 -DZ BKN013 FEW020CB OVC070 10/10 Q1020
Conditions at: OINR (RAMSAR , IR) observed 1000 UTC 21 April 2019
Temperature: 10.0°C (50°F)
Dewpoint: 10.0°C (50°F) [RH = 100%]
Pressure (altimeter): 30.12 inches Hg (1020.0 mb)
Winds: from the ENE (60 degrees) at 7 MPH (6 knots; 3.1 m/s)
Visibility: 2.49 miles (4.01 km)
Ceiling: 1300 feet AGL
Clouds: broken clouds at 1300 feet AGL
few clouds at 2000 feet AGL
overcast cloud deck at 7000 feet AGL
Weather: -DZ  (light drizzle)

METAR text: OINR 210900Z 00000KT 2500 DZ OVC010 10/09 Q1020
Conditions at: OINR (RAMSAR , IR) observed 0900 UTC 21 April 2019
Temperature: 10.0°C (50°F)
Dewpoint: 9.0°C (48°F) [RH = 93%]
Pressure (altimeter): 30.12 inches Hg (1020.0 mb)
Winds: calm
Visibility: 1.55 miles (2.49 km)
Ceiling: 1000 feet AGL
Clouds: overcast cloud deck at 1000 feet AGL
Weather: DZ  (moderate drizzle)

METAR text: OINR 210800Z 05002KT 9999 BKN015 FEW022CB OVC070 11/09 Q1020
Conditions at: OINR (RAMSAR , IR) observed 0800 UTC 21 April 2019
Temperature: 11.0°C (52°F)
Dewpoint: 9.0°C (48°F) [RH = 87%]
Pressure (altimeter): 30.12 inches Hg (1020.0 mb)
Winds: from the NE (50 degrees) at 2 MPH (2 knots; 1.0 m/s)
Visibility: 6 or more miles (10+ km)
Ceiling: 1500 feet AGL
Clouds: broken clouds at 1500 feet AGL
few clouds at 2200 feet AGL
overcast cloud deck at 7000 feet AGL
Weather: no significant weather observed at this time

METAR text: OINR 210700Z 06006KT 6000 BKN013 FEW020CB OVC070 10/09 Q1021
Conditions at: OINR (RAMSAR , IR) observed 0700 UTC 21 April 2019
Temperature: 10.0°C (50°F)
Dewpoint: 9.0°C (48°F) [RH = 93%]
Pressure (altimeter): 30.15 inches Hg (1021.0 mb)
Winds: from the ENE (60 degrees) at 7 MPH (6 knots; 3.1 m/s)
Visibility: 4 miles ( 6 km)
Ceiling: 1300 feet AGL
Clouds: broken clouds at 1300 feet AGL
few clouds at 2000 feet AGL
overcast cloud deck at 7000 feet AGL
Weather: no significant weather observed at this time

METAR text: OINR 210600Z 05004KT 7000 -RA BKN015 FEW022CB OVC070 10/09 Q1021
Conditions at: OINR (RAMSAR , IR) observed 0600 UTC 21 April 2019
Temperature: 10.0°C (50°F)
Dewpoint: 9.0°C (48°F) [RH = 93%]
Pressure (altimeter): 30.15 inches Hg (1021.0 mb)
Winds: from the NE (50 degrees) at 5 MPH (4 knots; 2.1 m/s)
Visibility: 4 miles ( 7 km)
Ceiling: 1500 feet AGL
Clouds: broken clouds at 1500 feet AGL
few clouds at 2200 feet AGL
overcast cloud deck at 7000 feet AGL
Weather: -RA  (light rain)

METAR text: OINR 210500Z 19002KT 7000 BKN014 FEW022CB OVC070 10/08 Q1021 RERA
Conditions at: OINR (RAMSAR , IR) observed 0500 UTC 21 April 2019
Temperature: 10.0°C (50°F)
Dewpoint: 8.0°C (46°F) [RH = 87%]
Pressure (altimeter): 30.15 inches Hg (1021.0 mb)
Winds: from the S (190 degrees) at 2 MPH (2 knots; 1.0 m/s)
Visibility: 4 miles ( 7 km)
Ceiling: 1400 feet AGL
Clouds: broken clouds at 1400 feet AGL
few clouds at 2200 feet AGL
overcast cloud deck at 7000 feet AGL
Weather: no significant weather observed at this time

METAR text: OINR 210400Z 21002KT 9999 SCT014 FEW022CB OVC070 09/08 Q1020
Conditions at: OINR (RAMSAR , IR) observed 0400 UTC 21 April 2019
Temperature: 9.0°C (48°F)
Dewpoint: 8.0°C (46°F) [RH = 93%]
Pressure (altimeter): 30.12 inches Hg (1020.0 mb)
Winds: from the SSW (210 degrees) at 2 MPH (2 knots; 1.0 m/s)
Visibility: 6 or more miles (10+ km)
Ceiling: 7000 feet AGL
Clouds: scattered clouds at 1400 feet AGL
few clouds at 2200 feet AGL
overcast cloud deck at 7000 feet AGL
Weather: no significant weather observed at this time

METAR text: OINR 210300Z 24002KT 6000 -RA SCT013 FEW020CB OVC060 08/07 Q1020
Conditions at: OINR (RAMSAR , IR) observed 0300 UTC 21 April 2019
Temperature: 8.0°C (46°F)
Dewpoint: 7.0°C (45°F) [RH = 93%]
Pressure (altimeter): 30.12 inches Hg (1020.0 mb)
Winds: from the WSW (240 degrees) at 2 MPH (2 knots; 1.0 m/s)
Visibility: 4 miles ( 6 km)
Ceiling: 6000 feet AGL
Clouds: scattered clouds at 1300 feet AGL
few clouds at 2000 feet AGL
overcast cloud deck at 6000 feet AGL
Weather: -RA  (light rain)

METAR text: OINR 210200Z 28002KT 5000 -RA BKN010 FEW020CB 08/08 Q1020
Conditions at: OINR (RAMSAR , IR) observed 0200 UTC 21 April 2019
Temperature: 8.0°C (46°F)
Dewpoint: 8.0°C (46°F) [RH = 100%]
Pressure (altimeter): 30.12 inches Hg (1020.0 mb)
Winds: from the W (280 degrees) at 2 MPH (2 knots; 1.0 m/s)
Visibility: 3 miles ( 5 km)
Ceiling: 1000 feet AGL
Clouds: broken clouds at 1000 feet AGL
few clouds at 2000 feet AGL
Weather: -RA  (light rain)